Latest Weather Observations for Orange Airport

IDN60801

Issued at 3:35 am EDT Saturday 25 October 2014 (issued every 30 minutes, with the page automatically refreshed every 10 minutes)

About weather observations | Map of weather stations | Latest weather observations for NSW | Other Formats
Station Details ID: 063303 Name: ORANGE AIRPORT AWS Lat: -33.38 Lon: 149.13 Height: 947.4 m
Data from the previous 72 hours. | See also: Recent months at Orange Airport
Date/Time
EDT
Temp
°C
App
Temp
°C
Dew
Point
Rel
Hum
%
Delta-T
°C
Wind Press
QNH
hPa
Press
MSL
hPa
Rain
since 9 am
mm
Dir
 
Spd
km/h
Gust
km/h
Spd
kts
Gust
kts
25/03:30am 14.8 10.8 6.6 58 4.2 WSW 17 17 9 9 1018.5 1016.9 0.2
25/03:00am 15.5 11.5 6.5 55 4.6 WSW 17 20 9 11 1018.5 1016.9 0.2
25/02:30am 15.8 11.3 6.0 52 5.0 SW 19 20 10 11 1018.6 1017.0 0.2
25/02:00am 15.9 11.2 6.1 52 5.0 WSW 20 24 11 13 1018.6 1017.0 0.2
25/01:30am 17.0 12.1 6.8 51 5.3 SW 22 26 12 14 1018.6 1017.0 0.2
25/01:00am 15.8 11.5 7.0 56 4.6 WSW 19 20 10 11 1018.7 1017.1 0.2
25/12:30am 17.3 13.0 7.1 51 5.3 SW 19 22 10 12 1019.0 1017.5 0.2
25/12:00am 19.0 14.5 6.8 45 6.4 SW 20 24 11 13 1018.9 1017.3 0.2
 
Date/Time
EDT
Temp
°C
App
Temp
°C
Dew
Point
Rel
Hum
%
Delta-T
°C
Wind Press
QNH
hPa
Press
MSL
hPa
Rain
since 9 am
mm
Dir
 
Spd
km/h
Gust
km/h
Spd
kts
Gust
kts
24/11:30pm 17.4 13.6 7.5 52 5.2 WSW 17 19 9 10 1018.8 1017.2 0.2
24/11:00pm 17.9 14.0 7.0 49 5.7 WSW 17 19 9 10 1018.9 1017.3 0.2
24/10:30pm 18.2 14.6 8.2 52 5.4 WSW 17 20 9 11 1018.8 1017.2 0.2
24/10:00pm 18.1 14.6 7.2 49 5.7 WSW 15 15 8 8 1018.7 1017.1 0.2
24/09:30pm 18.8 15.8 7.6 48 6.0 WSW 13 15 7 8 1018.7 1017.1 0.2
24/09:00pm 19.3 16.3 7.7 47 6.2 W 13 17 7 9 1018.4 1016.8 0.2
24/08:30pm 18.6 16.1 8.3 51 5.6 W 11 13 6 7 1017.8 1016.2 0.2
24/08:00pm 19.1 17.8 9.9 55 5.1 NNW 7 11 4 6 1017.6 1016.0 0.2
24/07:30pm 20.2 18.4 9.5 50 6.0 SW 9 11 5 6 1017.4 1015.8 0.2
24/07:00pm 19.8 16.8 10.8 56 5.1 W 17 26 9 14 1017.7 1016.1 0.2
24/06:44pm 21.0 12.8 9.6 48 6.4 W 43 67 23 36 1017.7 1016.1 0.0
24/06:42pm 22.7 14.5 8.4 40 7.9 W 41 54 22 29 1017.5 1015.9 0.0
24/06:38pm 22.2 15.9 9.0 43 7.4 NW 32 54 17 29 1017.2 1015.6 0.0
24/06:37pm 22.1 16.0 9.9 46 6.9 NW 32 39 17 21 1017.0 1015.3 0.0
24/06:30pm 22.4 21.1 12.6 54 5.8 NNW 11 13 6 7 1016.4 1014.8 0.0
24/06:00pm 23.3 21.9 12.3 50 6.5 NW 11 15 6 8 1016.3 1014.7 0.0
24/05:30pm 25.7 22.7 10.7 39 8.8 NW 17 20 9 11 1016.3 1014.7 0.0
24/05:00pm 26.2 22.8 10.4 37 9.2 NW 19 26 10 14 1016.4 1014.8 0.0
24/04:30pm 26.6 22.3 10.7 37 9.3 WNW 24 32 13 17 1016.5 1014.9 0.0
24/04:00pm 26.1 21.6 9.9 36 9.4 NNW 24 32 13 17 1016.7 1015.1 0.0
24/03:30pm 26.8 21.2 10.1 35 9.7 NNW 30 46 16 25 1017.2 1015.6 0.0
24/03:00pm 25.0 19.3 9.7 38 8.8 NNW 30 39 16 21 1017.7 1016.1 0.0
24/02:30pm 26.3 21.6 12.0 41 8.6 N 28 33 15 18 1018.2 1016.6 0.0
24/02:06pm 25.7 19.6 9.9 37 9.1 NNW 32 50 17 27 1018.5 1016.9 0.0
24/02:00pm 25.8 21.2 13.6 47 7.5 NNW 30 37 16 20 1018.7 1017.1 0.0
24/01:30pm 25.3 20.0 13.2 47 7.4 NNW 33 48 18 26 1019.0 1017.5 0.0
24/01:00pm 24.1 17.9 11.4 45 7.4 N 35 52 19 28 1019.3 1017.7 0.0
24/12:30pm 23.8 18.1 11.8 47 7.1 N 33 52 18 28 1019.8 1018.2 0.0
24/12:28pm 23.9 18.2 11.9 47 7.1 N 33 52 18 28 1019.8 1018.2 0.0
24/12:00pm 23.3 18.5 14.0 56 5.7 N 32 43 17 23 1020.2 1018.7 0.0
24/11:30am 21.5 16.0 12.4 56 5.4 N 33 44 18 24 1020.9 1019.4 0.0
24/11:00am 21.2 17.7 13.4 61 4.7 N 24 32 13 17 1021.6 1020.0 0.0
24/10:30am 21.3 18.1 14.2 64 4.3 N 24 35 13 19 1021.9 1020.4 0.0
24/10:00am 19.0 14.8 12.3 65 3.9 N 26 37 14 20 1022.2 1020.7 0.0
24/09:30am 18.5 15.6 12.9 70 3.3 N 20 28 11 15 1022.4 1020.9 0.0
24/09:00am 18.0 15.3 13.5 75 2.7 N 20 26 11 14 1022.3 1020.8 0.2
24/08:30am 17.0 13.9 11.7 71 3.0 N 19 26 10 14 1022.3 1020.8 0.2
24/08:00am 15.7 12.8 11.1 74 2.6 NNE 17 24 9 13 1022.3 1020.8 0.2
24/07:30am 13.8 11.5 11.7 87 1.2 N 15 17 8 9 1022.2 1020.7 0.2
24/07:00am 13.2 10.1 11.6 90 0.9 NNE 19 22 10 12 1021.8 1020.2 0.2
24/06:30am 12.3 12.3 11.0 92 0.7 N 2 11 1 6 1022.9 1021.4 0.0
24/06:00am 10.6 9.2 9.4 92 0.6 N 7 9 4 5 1021.8 1020.2 0.0
24/05:30am 10.9 9.0 9.2 89 0.9 N 9 11 5 6 1021.6 1020.0 0.0
24/05:00am 12.1 9.8 10.3 89 1.0 NE 13 19 7 10 1021.4 1019.9 0.0
24/04:30am 13.1 10.3 10.1 82 1.6 NE 15 22 8 12 1021.4 1019.9 0.0
24/04:00am 13.7 10.2 10.3 80 1.9 ENE 19 24 10 13 1021.6 1020.0 0.0
24/03:30am 13.1 10.1 10.6 85 1.4 E 17 20 9 11 1021.9 1020.4 0.0
24/03:00am 13.0 9.0 10.5 85 1.4 E 22 32 12 17 1022.1 1020.6 0.0
24/02:30am 13.7 9.4 10.7 82 1.7 SE 24 35 13 19 1022.8 1021.3 0.0
24/02:12am 15.1 9.9 10.1 72 2.7 SSW 28 41 15 22 1023.3 1021.8 0.0
24/02:00am 14.0 11.9 9.6 75 2.4 NNW 11 17 6 9 1021.7 1020.1 0.0
24/01:30am 12.1 9.8 9.1 82 1.6 NNW 11 13 6 7 1021.6 1020.0 0.0
24/01:00am 12.9 10.6 9.0 77 2.1 N 11 15 6 8 1021.7 1020.1 0.0
24/12:30am 12.4 10.3 8.3 76 2.1 N 9 11 5 6 1021.9 1020.4 0.0
24/12:00am 12.6 10.7 8.9 78 1.9 N 9 11 5 6 1022.0 1020.5 0.0
 
Date/Time
EDT
Temp
°C
App
Temp
°C
Dew
Point
Rel
Hum
%
Delta-T
°C
Wind Press
QNH
hPa
Press
MSL
hPa
Rain
since 9 am
mm
Dir
 
Spd
km/h
Gust
km/h
Spd
kts
Gust
kts
23/11:30pm 14.3 11.6 8.9 70 2.9 NE 13 17 7 9 1022.0 1020.5 0.0
23/11:00pm 14.5 11.5 9.1 70 2.9 ENE 15 19 8 10 1022.3 1020.8 0.0
23/10:30pm 15.3 11.9 9.2 67 3.3 NE 17 24 9 13 1022.8 1021.3 0.0
23/10:00pm 15.8 12.6 9.9 68 3.2 E 17 24 9 13 1022.9 1021.4 0.0
23/09:30pm 16.4 12.8 10.7 69 3.2 E 20 24 11 13 1022.7 1021.1 0.0
23/09:00pm 17.2 12.5 10.6 65 3.7 ESE 26 33 14 18 1022.5 1021.0 0.0
23/08:30pm 18.4 17.5 10.7 61 4.3 ENE 6 7 3 4 1021.2 1019.7 0.0
23/08:00pm 17.1 15.8 10.0 63 3.9 SSE 7 9 4 5 1021.1 1019.6 0.0
23/07:30pm 18.4 18.7 11.0 62 4.2 CALM 0 0 0 0 1020.7 1019.1 0.0
23/07:00pm 20.6 19.8 11.8 57 5.1 SSE 7 9 4 5 1020.2 1018.7 0.0
23/06:30pm 22.6 22.3 12.8 54 5.9 SSE 6 7 3 4 1019.9 1018.3 0.0
23/06:00pm 23.3 21.6 10.0 43 7.6 S 9 11 5 6 1019.8 1018.2 0.0
23/05:30pm 24.4 22.6 9.6 39 8.4 SSW 9 15 5 8 1019.9 1018.3 0.0
23/05:00pm 24.4 21.7 8.8 37 8.8 SSW 13 19 7 10 1019.8 1018.2 0.0
23/04:30pm 24.6 22.8 9.3 38 8.7 SW 9 17 5 9 1020.0 1018.5 0.0
23/04:00pm 24.3 21.5 8.7 37 8.7 SSW 13 19 7 10 1020.1 1018.6 0.0
23/03:30pm 24.7 23.0 11.3 43 7.9 SW 11 20 6 11 1020.2 1018.7 0.0
23/03:00pm 23.9 20.5 9.1 39 8.3 WSW 17 22 9 12 1020.4 1018.8 0.0
23/02:30pm 23.1 19.1 9.1 41 7.9 WSW 20 26 11 14 1020.8 1019.2 0.0
23/02:00pm 22.7 18.5 8.4 40 7.9 SW 20 24 11 13 1021.2 1019.7 0.0
23/01:30pm 24.1 20.4 10.0 41 8.1 WSW 20 26 11 14 1021.4 1019.9 0.0
23/01:00pm 23.9 20.2 10.2 42 7.9 WSW 20 26 11 14 1021.8 1020.2 0.0
23/12:30pm 22.7 20.5 12.0 50 6.3 W 15 22 8 12 1022.0 1020.5 0.0
23/12:00pm 22.4 18.6 9.9 45 7.1 W 20 26 11 14 1022.3 1020.8 0.0
23/11:30am 20.4 16.8 10.5 53 5.6 W 20 28 11 15 1022.5 1021.0 0.0
23/11:00am 19.2 15.8 11.3 60 4.5 WNW 20 26 11 14 1022.7 1021.1 0.0
23/10:30am 19.1 15.1 10.6 58 4.8 WSW 22 30 12 16 1023.1 1021.6 0.0
23/10:00am 20.0 14.6 11.0 56 5.1 SW 30 37 16 20 1023.3 1021.8 0.0
23/09:30am 19.1 14.5 9.6 54 5.3 SW 24 28 13 15 1023.2 1021.7 0.0
23/09:00am 19.5 17.7 11.0 58 4.8 W 11 13 6 7 1022.7 1021.1 -
23/08:30am 18.4 16.6 10.7 61 4.3 W 11 15 6 8 1022.5 1021.0 -
23/08:00am 16.9 15.3 11.4 70 3.1 NW 11 13 6 7 1022.5 1021.0 -
23/07:30am 14.2 13.9 11.5 84 1.5 N 4 9 2 5 1022.2 1020.7 -
23/07:00am 11.9 10.7 9.6 86 1.2 NW 6 9 3 5 1022.1 1020.6 -
23/06:30am 11.3 9.0 7.6 78 1.9 NW 9 11 5 6 1022.0 1020.5 -
23/06:00am 12.0 9.5 8.3 78 1.9 NW 11 15 6 8 1021.6 1020.0 -
23/05:30am 12.3 10.4 9.1 81 1.7 NNW 9 11 5 6 1021.4 1019.9 -
23/05:00am 11.9 9.6 9.1 83 1.5 NNW 11 13 6 7 1021.1 1019.6 -
23/04:30am 12.8 11.0 9.6 81 1.7 N 9 9 5 5 1021.0 1019.5 -
23/04:00am 11.8 10.3 9.0 83 1.5 NNW 7 9 4 5 1021.1 1019.6 -
23/03:30am 11.8 10.3 9.2 84 1.4 N 7 9 4 5 1021.2 1019.7 -
23/03:00am 12.1 9.5 7.8 75 2.2 NNW 11 15 6 8 1021.2 1019.7 0.0
23/02:30am 12.2 11.0 9.4 83 1.5 NW 6 7 3 4 1021.6 1020.0 -
23/02:00am 13.8 12.6 10.4 80 1.9 WNW 7 9 4 5 1021.9 1020.4 -
23/01:30am 12.5 11.2 10.0 85 1.3 WNW 7 9 4 5 1022.1 1020.6 -
23/01:00am 11.8 10.1 10.0 89 1.0 NW 9 9 5 5 1022.3 1020.8 -
23/12:30am 12.2 11.7 10.6 90 0.9 N 4 9 2 5 1022.4 1020.9 -
23/12:00am 11.1 11.1 9.7 91 0.7 CALM 0 0 0 0 1022.7 1021.1 -
 
Date/Time
EDT
Temp
°C
App
Temp
°C
Dew
Point
Rel
Hum
%
Delta-T
°C
Wind Press
QNH
hPa
Press
MSL
hPa
Rain
since 9 am
mm
Dir
 
Spd
km/h
Gust
km/h
Spd
kts
Gust
kts
22/11:30pm 11.3 11.4 10.0 92 0.7 CALM 0 0 0 0 1022.8 1021.3 -
22/11:00pm 11.3 11.2 9.4 88 1.0 CALM 0 0 0 0 1022.9 1021.4 -
22/10:30pm 12.2 12.6 11.1 93 0.6 CALM 0 0 0 0 1022.9 1021.4 -
22/10:00pm 12.3 12.4 10.0 86 1.2 CALM 0 0 0 0 1023.0 1021.5 -
22/09:30pm 12.9 13.2 11.0 88 1.0 CALM 0 0 0 0 1023.0 1021.5 -
22/09:00pm 13.1 13.3 10.5 84 1.4 CALM 0 0 0 0 1022.9 1021.4 -
22/08:30pm 15.5 15.9 11.3 76 2.4 CALM 0 0 0 0 1022.7 1021.1 -
22/08:00pm 14.6 14.5 9.6 72 2.7 CALM 0 0 0 0 1022.3 1020.8 -
22/07:30pm 17.2 17.1 10.8 66 3.6 N 2 6 1 3 1022.2 1020.7 -
22/07:00pm 18.7 17.4 11.3 62 4.2 N 9 11 5 6 1022.1 1020.6 -
22/06:30pm 20.0 19.1 12.5 62 4.4 NNW 9 11 5 6 1022.2 1020.7 -
22/06:00pm 20.9 19.5 12.3 58 5.0 NNW 11 15 6 8 1022.3 1020.8 -
22/09:30am 11.3 7.9 9.0 86 1.2 NNE 17 22 9 12 1026.7 1025.3 0.0
22/09:00am 10.2 7.2 9.1 93 0.6 NE 15 19 8 10 1026.6 1025.2 -
22/08:41am 9.8 6.7 8.7 93 0.6 ENE 15 19 8 10 1026.5 1025.1 -
22/08:30am 9.5 6.7 8.4 93 0.6 ENE 13 17 7 9 1026.3 1024.8 -
22/08:00am 8.4 5.7 7.3 93 0.5 NE 11 13 6 7 1026.4 1024.9 -
22/07:30am 7.4 4.1 6.3 93 0.5 NE 13 19 7 10 1026.5 1025.1 -
22/07:00am 6.9 3.5 5.8 93 0.5 ENE 13 17 7 9 1026.5 1025.1 -
22/06:56am 6.8 3.7 5.7 93 0.5 NE 11 15 6 8 1026.5 1025.1 -
22/06:30am 5.8 2.9 4.8 93 0.5 NE 9 13 5 7 1026.3 1024.8 -
22/06:00am 5.0 2.0 4.0 93 0.4 ENE 9 13 5 7 1025.9 1024.5 -
22/05:30am 5.4 2.8 4.4 93 0.5 ENE 7 11 4 6 1025.9 1024.5 -
22/05:21am 5.3 2.3 4.3 93 0.5 ENE 9 13 5 7 1025.8 1024.4 -
22/05:00am 5.7 2.8 4.7 93 0.5 ENE 9 11 5 6 1025.8 1024.4 -
22/04:39am 5.8 2.5 4.8 93 0.5 ENE 11 15 6 8 1025.8 1024.4 -
22/04:30am 5.6 2.3 4.6 93 0.5 ENE 11 15 6 8 1025.7 1024.3 -
22/04:00am 5.5 2.2 4.5 93 0.5 E 11 17 6 9 1025.9 1024.9 -

Other Formats:

Comma delimited format used in spreadsheet applications
http://www.bom.gov.au/fwo/IDN60801/IDN60801.95726.axf

JavaScript Object Notation format (JSON) in row-major order
http://www.bom.gov.au/fwo/IDN60801/IDN60801.95726.json